Time;durP1;ratioP1;P1;durP2;ratioP2;P2;SDS_P1;SDS_P2;PMS_P1;PMS_P2;Temp;Humidity;BMP_temperature;BMP_pressure;BME280_temperature;BME280_humidity;BME280_pressure;Samples;Min_cycle;Max_cycle;Signal;HPM_P1;HPM_P2
2023/11/30 00:02:13;;;;;;;80.32;49.42;;;26.40;2201.60;;;;;;5069790;28;20043;-62
2023/11/30 00:04:39;;;;;;;60.20;36.67;;;26.30;2201.60;;;;;;5063107;28;20030;-62
2023/11/30 00:07:10;;;;;;;45.92;26.42;;;26.10;2201.60;;;;;;5069795;28;20024;-62
2023/11/30 00:09:35;;;;;;;248.10;123.25;;;26.10;2201.60;;;;;;5069501;28;20120;-62
2023/11/30 00:12:03;;;;;;;67.88;38.13;;;26.20;2201.60;;;;;;5069234;28;20463;-63
2023/11/30 00:14:29;;;;;;;89.85;50.17;;;26.00;2201.60;;;;;;5069730;28;20431;-62
2023/11/30 00:16:55;;;;;;;42.30;25.77;;;25.90;2201.60;;;;;;5069656;28;20021;-62
2023/11/30 00:19:20;;;;;;;54.22;31.05;;;25.80;2201.60;;;;;;5069685;28;20475;-63
2023/11/30 00:21:46;;;;;;;64.47;37.03;;;25.70;2201.60;;;;;;5069196;28;20111;-62
2023/11/30 00:24:12;;;;;;;87.00;46.55;;;25.70;2201.60;;;;;;5069393;28;20025;-62
2023/11/30 00:26:38;;;;;;;72.28;40.88;;;25.60;2201.60;;;;;;5069334;28;20020;-63
2023/11/30 00:29:04;;;;;;;75.22;42.42;;;25.60;2201.60;;;;;;5068945;28;20028;-63
2023/11/30 00:31:29;;;;;;;63.00;32.53;;;25.70;2201.60;;;;;;5069040;28;20479;-64
2023/11/30 00:33:55;;;;;;;45.75;24.98;;;25.80;2201.60;;;;;;5065326;28;20025;-62
2023/11/30 00:36:21;;;;;;;50.35;29.23;;;25.60;2201.60;;;;;;5067386;28;20021;-61
2023/11/30 00:38:47;;;;;;;62.83;33.60;;;0.90;2201.60;;;;;;5069063;28;20033;-64
2023/11/30 00:41:16;;;;;;;62.78;34.00;;;0.90;2201.60;;;;;;5069461;28;20036;-62
2023/11/30 00:43:41;;;;;;;66.85;33.53;;;25.60;2201.60;;;;;;5069135;28;20064;-63
2023/11/30 00:46:14;;;;;;;52.65;30.83;;;25.70;2201.60;;;;;;5069031;28;20411;-61
2023/11/30 00:48:43;;;;;;;44.50;26.70;;;25.70;2201.60;;;;;;5056398;28;20113;-62
2023/11/30 00:51:10;;;;;;;47.60;24.48;;;25.80;2201.60;;;;;;5068710;28;20102;-63
2023/11/30 00:53:36;;;;;;;30.85;21.27;;;25.90;2201.60;;;;;;5069307;28;20048;-62
2023/11/30 00:56:02;;;;;;;31.63;17.25;;;26.10;2201.60;;;;;;5069110;28;20505;-62
2023/11/30 00:58:28;;;;;;;32.55;20.17;;;26.00;2201.60;;;;;;5069076;28;20040;-61
2023/11/30 01:00:54;;;;;;;52.17;30.95;;;25.90;2201.60;;;;;;5068220;28;20017;-62
2023/11/30 01:03:19;;;;;;;40.22;24.00;;;25.60;2201.60;;;;;;5069014;28;20112;-61
2023/11/30 01:05:45;;;;;;;42.83;26.73;;;0.90;2201.60;;;;;;5068797;28;20324;-62
2023/11/30 01:08:13;;;;;;;41.60;21.98;;;0.70;2201.60;;;;;;5067197;28;20012;-62
2023/11/30 01:10:39;;;;;;;41.22;23.02;;;0.50;2201.60;;;;;;5065606;28;20070;-63
2023/11/30 01:13:05;;;;;;;40.13;20.80;;;0.50;2201.60;;;;;;5068928;28;20032;-61
2023/11/30 01:15:31;;;;;;;34.17;20.98;;;0.50;2201.60;;;;;;5068543;28;20024;-62
2023/11/30 01:17:56;;;;;;;47.67;26.63;;;0.50;2201.60;;;;;;5068811;28;20032;-62
2023/11/30 01:20:22;;;;;;;53.30;30.83;;;0.60;2201.60;;;;;;5068949;28;20024;-63
2023/11/30 01:22:48;;;;;;;37.80;23.20;;;0.90;2201.60;;;;;;5068751;28;20025;-63
2023/11/30 01:25:14;;;;;;;25.83;14.40;;;25.60;2201.60;;;;;;5068821;28;20021;-61
2023/11/30 01:27:39;;;;;;;33.72;19.67;;;25.70;2201.60;;;;;;5068887;28;20029;-63
2023/11/30 01:30:06;;;;;;;31.55;21.50;;;25.70;2201.60;;;;;;5068540;28;20017;-63
2023/11/30 01:32:32;;;;;;;33.45;19.13;;;0.90;2201.60;;;;;;5068915;28;20032;-63
2023/11/30 01:34:57;;;;;;;38.45;20.15;;;0.70;2201.60;;;;;;5068915;28;20028;-63
2023/11/30 01:37:23;;;;;;;34.42;21.25;;;0.60;2201.60;;;;;;5068564;28;20034;-63
2023/11/30 01:39:49;;;;;;;40.42;23.40;;;0.70;2201.60;;;;;;5056760;28;20128;-63
2023/11/30 01:42:15;;;;;;;25.20;14.10;;;25.60;2201.60;;;;;;5060367;28;20028;-62
2023/11/30 01:44:41;;;;;;;23.85;15.95;;;25.60;2201.60;;;;;;5072378;28;20506;-63
2023/11/30 01:47:06;;;;;;;30.08;18.38;;;0.90;2201.60;;;;;;5072328;28;20016;-63
2023/11/30 01:49:33;;;;;;;36.53;21.27;;;25.80;2201.60;;;;;;5073179;28;20031;-63
2023/11/30 01:52:01;;;;;;;24.30;15.98;;;26.00;2201.60;;;;;;5072129;28;20040;-63
2023/11/30 01:54:27;;;;;;;25.45;16.75;;;26.20;2201.60;;;;;;5072421;28;20537;-64
2023/11/30 01:56:54;;;;;;;20.30;13.63;;;26.20;2201.60;;;;;;5072001;28;20044;-62
2023/11/30 01:59:20;;;;;;;21.48;12.45;;;26.20;2201.60;;;;;;5071990;28;20044;-63
2023/11/30 02:01:45;;;;;;;20.58;12.18;;;26.50;2201.60;;;;;;5072080;28;20078;-63
2023/11/30 02:04:13;;;;;;;16.15;10.73;;;26.40;2201.60;;;;;;5072272;28;20032;-63
2023/11/30 02:06:39;;;;;;;65.85;36.17;;;26.20;2201.60;;;;;;5071921;28;20035;-63
2023/11/30 02:09:06;;;;;;;47.83;24.80;;;26.30;2201.60;;;;;;5072156;28;20055;-62
2023/11/30 02:11:32;;;;;;;38.17;23.13;;;26.00;2201.60;;;;;;5065404;28;20068;-63
2023/11/30 02:13:58;;;;;;;43.97;24.65;;;26.10;2201.60;;;;;;5065068;28;20092;-63
2023/11/30 02:16:23;;;;;;;125.63;65.72;;;26.10;2201.60;;;;;;5072018;28;20056;-63
2023/11/30 02:18:49;;;;;;;30.42;17.73;;;26.10;2201.60;;;;;;5071879;28;20036;-63
2023/11/30 02:21:15;;;;;;;44.65;26.33;;;26.20;2201.60;;;;;;5071909;28;20028;-63
2023/11/30 02:23:40;;;;;;;45.33;25.95;;;26.20;2201.60;;;;;;5071789;28;20522;-63
2023/11/30 02:26:07;;;;;;;57.17;33.50;;;26.30;2201.60;;;;;;5071641;28;20016;-62
2023/11/30 02:28:32;;;;;;;67.15;40.20;;;26.00;2201.60;;;;;;5072123;28;20103;-63
2023/11/30 02:30:58;;;;;;;53.38;29.95;;;26.10;2201.60;;;;;;5071955;28;20104;-63
2023/11/30 02:33:24;;;;;;;38.65;23.40;;;26.00;2201.60;;;;;;5071862;28;20028;-63
2023/11/30 02:35:49;;;;;;;47.85;29.38;;;25.80;2201.60;;;;;;5058057;28;20028;-63
2023/11/30 02:38:15;;;;;;;43.92;28.55;;;25.90;2201.60;;;;;;5071530;28;20037;-62
2023/11/30 02:40:41;;;;;;;73.43;44.25;;;25.90;2201.60;;;;;;5056234;28;20117;-62
2023/11/30 02:43:06;;;;;;;50.17;31.73;;;26.00;2201.60;;;;;;5069499;28;20056;-62
2023/11/30 02:45:32;;;;;;;54.95;31.40;;;25.70;2201.60;;;;;;5071617;28;20046;-62
2023/11/30 02:47:57;;;;;;;48.20;28.05;;;25.70;2201.60;;;;;;5071618;28;20025;-63
2023/11/30 02:50:23;;;;;;;47.20;27.50;;;25.70;2201.60;;;;;;5071275;28;20033;-62
2023/11/30 02:52:49;;;;;;;51.80;31.42;;;25.70;2201.60;;;;;;5070331;28;20035;-62
2023/11/30 02:55:15;;;;;;;42.22;27.98;;;25.70;2201.60;;;;;;5071195;28;20052;-62
2023/11/30 02:57:40;;;;;;;44.15;25.27;;;25.60;2201.60;;;;;;5071217;28;20064;-61
2023/11/30 03:00:06;;;;;;;27.63;18.98;;;25.60;2201.60;;;;;;5071359;28;20024;-62
2023/11/30 03:02:32;;;;;;;34.33;23.50;;;25.70;2201.60;;;;;;5071641;28;20427;-62
2023/11/30 03:04:58;;;;;;;59.45;39.15;;;25.80;2201.60;;;;;;5071193;28;20048;-63
2023/11/30 03:07:23;;;;;;;33.65;21.85;;;25.60;2201.60;;;;;;5071011;28;20035;-62
2023/11/30 03:09:49;;;;;;;36.15;21.05;;;0.60;2201.60;;;;;;5070678;28;20044;-63
2023/11/30 03:12:15;;;;;;;32.67;20.73;;;0.50;2201.60;;;;;;5071142;28;20502;-62
2023/11/30 03:14:45;;;;;;;34.28;20.75;;;0.50;2201.60;;;;;;5064380;28;20024;-62
2023/11/30 03:17:11;;;;;;;33.13;19.15;;;0.70;2201.60;;;;;;5070776;28;20505;-63
2023/11/30 03:19:38;;;;;;;37.80;20.98;;;0.80;2201.60;;;;;;5070829;28;20064;-62
2023/11/30 03:22:04;;;;;;;26.60;15.63;;;0.80;2201.60;;;;;;5071006;28;20065;-62
2023/11/30 03:24:29;;;;;;;33.80;16.77;;;25.60;2201.60;;;;;;5070807;28;20052;-62
2023/11/30 03:26:55;;;;;;;56.38;31.30;;;25.80;2201.60;;;;;;5071180;28;20032;-62
2023/11/30 03:29:21;;;;;;;55.03;31.10;;;25.80;2201.60;;;;;;5070609;28;20043;-62
2023/11/30 03:31:46;;;;;;;89.18;50.13;;;25.70;2201.60;;;;;;5070769;28;20052;-63
2023/11/30 03:34:12;;;;;;;54.75;32.63;;;25.70;2201.60;;;;;;5070688;28;20027;-63
2023/11/30 03:36:38;;;;;;;106.18;60.33;;;25.60;2201.60;;;;;;5070214;28;20535;-63
2023/11/30 03:39:04;;;;;;;105.18;53.28;;;25.70;2201.60;;;;;;5070183;28;20040;-63
2023/11/30 03:41:30;;;;;;;80.15;44.15;;;25.70;2201.60;;;;;;5070261;28;20033;-63
2023/11/30 03:43:56;;;;;;;53.53;27.60;;;25.70;2201.60;;;;;;5070868;28;20013;-62
2023/11/30 03:46:24;;;;;;;45.40;26.02;;;25.60;2201.60;;;;;;5063878;28;20108;-62
2023/11/30 03:48:53;;;;;;;35.58;19.67;;;25.70;2201.60;;;;;;5070257;28;20032;-63
2023/11/30 03:51:19;;;;;;;71.60;39.58;;;25.70;2201.60;;;;;;5069904;28;20165;-63
2023/11/30 03:53:46;;;;;;;47.55;29.98;;;25.60;2201.60;;;;;;5070464;28;20036;-63
2023/11/30 03:56:11;;;;;;;40.38;23.02;;;25.70;2201.60;;;;;;5069980;28;20103;-62
2023/11/30 03:58:37;;;;;;;91.78;44.58;;;25.70;2201.60;;;;;;5070057;28;20119;-63
2023/11/30 04:01:03;;;;;;;112.68;57.65;;;25.70;2201.60;;;;;;5070077;28;20475;-63
2023/11/30 04:03:28;;;;;;;58.85;32.60;;;25.70;2201.60;;;;;;5069835;28;20035;-63
2023/11/30 04:05:54;;;;;;;63.13;33.25;;;25.70;2201.60;;;;;;5069936;28;20058;-63
2023/11/30 04:08:20;;;;;;;48.97;28.48;;;25.70;2201.60;;;;;;5069736;28;20021;-63
2023/11/30 04:10:45;;;;;;;50.13;30.60;;;25.60;2201.60;;;;;;5069382;28;20082;-62
2023/11/30 04:13:11;;;;;;;42.80;24.20;;;25.60;2201.60;;;;;;5069662;28;20030;-63
2023/11/30 04:15:37;;;;;;;29.50;17.92;;;25.70;2201.60;;;;;;5069595;28;20025;-64
2023/11/30 04:18:02;;;;;;;33.90;20.95;;;0.90;2201.60;;;;;;5061333;28;20440;-64
2023/11/30 04:20:28;;;;;;;31.48;19.02;;;0.90;2201.60;;;;;;5063095;28;20402;-63
2023/11/30 04:22:54;;;;;;;27.95;17.50;;;25.60;2201.60;;;;;;5069813;28;20107;-63
2023/11/30 04:25:22;;;;;;;23.25;14.52;;;25.60;2201.60;;;;;;5069592;28;20048;-63
2023/11/30 04:27:48;;;;;;;22.77;15.52;;;25.60;2201.60;;;;;;5069353;28;20033;-64
2023/11/30 04:30:13;;;;;;;29.42;17.45;;;25.60;2201.60;;;;;;5069664;28;20471;-63
2023/11/30 04:32:39;;;;;;;34.65;20.08;;;25.60;2201.60;;;;;;5069545;28;20111;-63
2023/11/30 04:35:05;;;;;;;39.90;22.02;;;25.70;2201.60;;;;;;5069080;28;20028;-64
2023/11/30 04:37:31;;;;;;;41.22;22.75;;;25.70;2201.60;;;;;;5069588;28;20028;-63
2023/11/30 04:39:56;;;;;;;82.50;44.85;;;25.80;2201.60;;;;;;5069345;28;20395;-63
2023/11/30 04:42:22;;;;;;;74.15;43.05;;;25.70;2201.60;;;;;;5069569;28;20049;-63
2023/11/30 04:44:48;;;;;;;91.45;54.95;;;25.70;2201.60;;;;;;5069266;28;20032;-63
2023/11/30 04:47:14;;;;;;;100.35;56.22;;;25.60;2201.60;;;;;;5069492;28;20028;-63
2023/11/30 04:49:39;;;;;;;82.90;49.15;;;0.90;2201.60;;;;;;5069241;28;20020;-63
2023/11/30 04:52:05;;;;;;;50.15;30.75;;;0.90;2201.60;;;;;;5069181;28;20024;-63
2023/11/30 04:54:31;;;;;;;37.17;22.05;;;0.80;2201.60;;;;;;5067311;28;20103;-63
2023/11/30 04:56:56;;;;;;;30.30;19.30;;;0.70;2201.60;;;;;;5063379;28;20039;-63
2023/11/30 04:59:22;;;;;;;26.15;17.77;;;0.60;2201.60;;;;;;5069376;28;20550;-63
2023/11/30 05:01:48;;;;;;;31.42;17.15;;;0.50;2201.60;;;;;;5069080;28;20455;-64
2023/11/30 05:04:13;;;;;;;27.38;15.18;;;0.60;2201.60;;;;;;5068982;28;20036;-63
2023/11/30 05:06:39;;;;;;;52.08;31.10;;;0.60;2201.60;;;;;;5068812;28;20141;-63
2023/11/30 05:09:05;;;;;;;43.80;25.08;;;0.50;2201.60;;;;;;5069027;28;20103;-63
2023/11/30 05:11:31;;;;;;;50.90;28.88;;;0.60;2201.60;;;;;;5068943;28;20498;-64
2023/11/30 05:13:58;;;;;;;80.60;48.17;;;0.70;2201.60;;;;;;5069537;28;20034;-64
2023/11/30 05:16:24;;;;;;;86.97;50.53;;;0.90;2201.60;;;;;;5075325;28;20032;-63
2023/11/30 05:18:49;;;;;;;62.28;39.03;;;0.90;2201.60;;;;;;5075694;28;20070;-63
2023/11/30 05:21:16;;;;;;;50.75;29.98;;;25.70;2201.60;;;;;;5075482;28;20028;-63
2023/11/30 05:23:41;;;;;;;68.78;43.25;;;25.80;2201.60;;;;;;5075220;28;20383;-63
2023/11/30 05:26:07;;;;;;;107.93;60.72;;;25.80;2201.60;;;;;;5066649;28;20050;-64
2023/11/30 05:28:33;;;;;;;158.98;84.95;;;25.90;2201.60;;;;;;5073601;28;20524;-63
2023/11/30 05:30:59;;;;;;;134.35;74.95;;;26.00;2201.60;;;;;;5075472;28;20044;-63
2023/11/30 05:33:27;;;;;;;87.72;53.63;;;26.10;2201.60;;;;;;5075064;28;20036;-63
2023/11/30 05:35:52;;;;;;;86.93;52.70;;;26.10;2201.60;;;;;;5075538;28;20021;-63
2023/11/30 05:38:19;;;;;;;99.05;61.00;;;26.20;2201.60;;;;;;5075068;28;20040;-64
2023/11/30 05:40:45;;;;;;;109.78;66.25;;;26.30;2201.60;;;;;;5075259;28;20157;-63
2023/11/30 05:43:11;;;;;;;89.97;56.67;;;26.40;2201.60;;;;;;5075465;28;20029;-63
2023/11/30 05:45:37;;;;;;;88.38;56.60;;;26.30;2201.60;;;;;;5075200;28;20035;-63
2023/11/30 05:48:03;;;;;;;60.25;37.78;;;26.50;2201.60;;;;;;5075449;28;20020;-63
2023/11/30 05:50:28;;;;;;;65.22;45.70;;;26.50;2201.60;;;;;;5075175;28;20033;-62
2023/11/30 05:52:54;;;;;;;96.97;68.03;;;51.20;2227.20;;;;;;5075401;28;20029;-63
2023/11/30 05:55:20;;;;;;;56.40;39.58;;;51.30;2227.20;;;;;;5074682;28;20012;-62
2023/11/30 05:57:46;;;;;;;56.72;34.33;;;51.20;2227.20;;;;;;5062971;28;20032;-62
2023/11/30 06:00:12;;;;;;;95.82;50.20;;;51.30;2227.20;;;;;;5071417;28;20029;-62
2023/11/30 06:02:39;;;;;;;63.15;39.28;;;51.60;2227.20;;;;;;5075994;28;20477;-63
2023/11/30 06:05:05;;;;;;;58.53;37.28;;;51.70;2227.20;;;;;;5074898;28;20391;-63
2023/11/30 06:07:31;;;;;;;45.42;27.02;;;52.00;2227.20;;;;;;5074663;28;20028;-64
2023/11/30 06:09:56;;;;;;;23.85;14.25;;;76.90;2227.20;;;;;;5075210;28;20040;-63
2023/11/30 06:12:22;;;;;;;28.85;17.90;;;77.30;2227.20;;;;;;5075091;28;20049;-63
2023/11/30 06:14:48;;;;;;;35.92;21.50;;;77.60;2227.20;;;;;;5075126;28;20024;-64
2023/11/30 06:17:15;;;;;;;27.40;16.73;;;102.40;2227.20;;;;;;5075197;28;20024;-63
2023/11/30 06:19:41;;;;;;;17.08;11.23;;;102.80;2227.20;;;;;;5074934;28;20040;-63
2023/11/30 06:22:07;;;;;;;19.42;11.70;;;103.20;2227.20;;;;;;5075121;28;20388;-63
2023/11/30 06:24:34;;;;;;;37.05;19.17;;;128.10;2252.80;;;;;;5074793;28;20082;-63
2023/11/30 06:27:01;;;;;;;204.40;98.10;;;128.30;2252.80;;;;;;5071457;28;20043;-63
2023/11/30 06:29:27;;;;;;;102.32;62.33;;;128.60;2252.80;;;;;;5063695;28;20037;-63
2023/11/30 06:31:53;;;;;;;59.50;38.67;;;128.70;2252.80;;;;;;5065512;28;20458;-63
2023/11/30 06:34:19;;;;;;;85.00;53.65;;;128.90;2252.80;;;;;;5059456;28;20043;-63
2023/11/30 06:36:45;;;;;;;64.05;47.55;;;128.90;2252.80;;;;;;5071814;28;20028;-63
2023/11/30 06:39:10;;;;;;;26.58;18.90;;;128.90;2252.80;;;;;;5071294;28;20037;-63
2023/11/30 06:41:36;;;;;;;42.28;28.35;;;128.90;2252.80;;;;;;5071963;28;20467;-62
2023/11/30 06:44:02;;;;;;;46.70;32.85;;;154.10;2252.80;;;;;;5071748;28;20390;-62
2023/11/30 06:46:27;;;;;;;39.47;27.48;;;128.90;2252.80;;;;;;5071316;28;20025;-63
2023/11/30 06:48:53;;;;;;;39.78;26.25;;;128.90;2252.80;;;;;;5071817;28;20092;-62
2023/11/30 06:51:19;;;;;;;25.20;19.55;;;153.60;2252.80;;;;;;5071422;28;20031;-63
2023/11/30 06:53:44;;;;;;;22.55;16.85;;;153.60;2252.80;;;;;;5071463;28;20535;-62
2023/11/30 06:56:13;;;;;;;25.52;17.10;;;153.70;2252.80;;;;;;5071426;28;20028;-61
2023/11/30 06:58:39;;;;;;;17.25;11.63;;;153.80;2252.80;;;;;;5071374;28;20040;-63
2023/11/30 07:01:08;;;;;;;20.98;14.48;;;154.00;2252.80;;;;;;5071393;28;20040;-61
2023/11/30 07:03:34;;;;;;;24.70;19.10;;;154.20;2252.80;;;;;;5071698;28;20036;-62
2023/11/30 07:06:00;;;;;;;19.30;14.60;;;154.30;2252.80;;;;;;5069672;28;20442;-61
2023/11/30 07:08:25;;;;;;;19.35;14.68;;;154.40;2252.80;;;;;;5058327;28;20055;-60
2023/11/30 07:10:51;;;;;;;24.92;17.08;;;154.50;2252.80;;;;;;5065017;28;20032;-60
2023/11/30 07:13:17;;;;;;;23.50;18.30;;;179.20;2252.80;;;;;;5071087;28;20043;-61
2023/11/30 07:15:43;;;;;;;22.30;15.95;;;179.30;2252.80;;;;;;5070938;28;20025;-62
2023/11/30 07:18:11;;;;;;;23.45;15.60;;;179.40;2252.80;;;;;;5070927;28;20029;-62
2023/11/30 07:20:36;;;;;;;34.92;22.58;;;179.40;2252.80;;;;;;5071166;28;20491;-61
2023/11/30 07:23:04;;;;;;;28.48;20.85;;;179.40;2252.80;;;;;;5070872;28;20115;-62
2023/11/30 07:25:30;;;;;;;34.95;21.88;;;179.50;2252.80;;;;;;5052565;28;20390;-62
2023/11/30 07:27:56;;;;;;;49.40;28.70;;;179.60;2252.80;;;;;;5071023;28;20119;-61
2023/11/30 07:30:22;;;;;;;36.90;23.83;;;179.60;2252.80;;;;;;5070449;28;20032;-60
2023/11/30 07:32:48;;;;;;;38.85;27.63;;;179.60;2252.80;;;;;;5070684;28;20027;-62
2023/11/30 07:35:14;;;;;;;23.42;18.15;;;179.60;2252.80;;;;;;5070728;28;20070;-62
2023/11/30 07:37:42;;;;;;;26.65;17.70;;;179.70;2252.80;;;;;;5069793;28;20383;-62
2023/11/30 07:40:08;;;;;;;22.98;17.48;;;179.90;2252.80;;;;;;5063552;28;20177;-62
2023/11/30 07:42:34;;;;;;;25.15;17.33;;;180.00;2252.80;;;;;;5070958;28;20040;-62
2023/11/30 07:45:01;;;;;;;19.27;14.98;;;204.80;2252.80;;;;;;5070067;28;20390;-62
2023/11/30 07:47:28;;;;;;;21.92;16.52;;;205.10;2252.80;;;;;;5070366;28;20078;-62
2023/11/30 07:49:54;;;;;;;16.45;11.60;;;205.20;2252.80;;;;;;5070730;28;20169;-61
2023/11/30 07:52:20;;;;;;;15.65;11.57;;;205.60;2252.80;;;;;;5070187;28;20379;-62
2023/11/30 07:54:46;;;;;;;12.95;8.95;;;230.40;2252.80;;;;;;5070194;28;20117;-62
2023/11/30 07:57:12;;;;;;;12.68;9.57;;;230.50;2252.80;;;;;;5070092;28;20375;-61
2023/11/30 07:59:37;;;;;;;21.20;14.48;;;230.70;2252.80;;;;;;5070498;28;20032;-62
2023/11/30 08:02:08;;;;;;;30.23;20.27;;;230.80;2252.80;;;;;;5070616;28;20234;-62
2023/11/30 08:04:35;;;;;;;18.70;12.70;;;231.00;2252.80;;;;;;5070235;28;20035;-62
2023/11/30 08:07:01;;;;;;;9.57;8.10;;;231.10;2252.80;;;;;;5068334;28;20017;-62
2023/11/30 08:09:27;;;;;;;26.30;21.80;;;231.30;2252.80;;;;;;5069448;28;20082;-61
2023/11/30 08:11:53;;;;;;;19.15;13.40;;;256.20;2252.80;;;;;;5069763;28;20044;-62
2023/11/30 08:14:19;;;;;;;424.25;256.08;;;256.30;2252.80;;;;;;5069668;28;20025;-62
2023/11/30 08:16:45;;;;;;;592.03;374.40;;;256.30;2252.80;;;;;;5064135;28;20480;-61
2023/11/30 08:19:11;;;;;;;220.60;147.23;;;256.30;2252.80;;;;;;5059673;28;20047;-61
2023/11/30 08:21:40;;;;;;;219.80;164.63;;;230.70;2252.80;;;;;;5069016;28;20024;-58
2023/11/30 08:24:09;;;;;;;146.10;104.05;;;230.60;2252.80;;;;;;5069092;28;20671;-59
2023/11/30 08:26:35;;;;;;;130.55;87.63;;;205.40;2252.80;;;;;;5069443;28;20032;-61
2023/11/30 08:29:01;;;;;;;188.00;127.20;;;180.10;2252.80;;;;;;5068394;28;20059;-61
2023/11/30 08:31:27;;;;;;;92.55;65.22;;;179.80;2252.80;;;;;;5069891;28;20028;-68
2023/11/30 08:33:54;;;;;;;89.45;59.80;;;179.80;2252.80;;;;;;5066937;28;20025;-59
2023/11/30 08:36:19;;;;;;;105.93;68.13;;;205.70;2252.80;;;;;;5069055;28;20051;-59
2023/11/30 08:38:45;;;;;;;126.90;72.95;;;231.10;2252.80;;;;;;5069187;28;20037;-64
2023/11/30 08:41:11;;;;;;;76.60;52.10;;;256.40;2252.80;;;;;;5068979;28;20064;-63
2023/11/30 08:43:36;;;;;;;37.45;26.48;;;231.00;2252.80;;;;;;5069042;28;20730;-64
2023/11/30 08:46:02;;;;;;;31.77;21.23;;;205.70;2252.80;;;;;;5067657;28;20463;-59
2023/11/30 08:48:29;;;;;;;33.50;23.35;;;230.40;2252.80;;;;;;5063830;28;20364;-67
2023/11/30 08:50:55;;;;;;;29.85;19.45;;;230.50;2252.80;;;;;;5068592;28;20024;-59
2023/11/30 08:53:21;;;;;;;54.03;34.78;;;231.30;2252.80;;;;;;5068641;28;20039;-65
2023/11/30 08:55:46;;;;;;;72.70;49.10;;;230.70;2252.80;;;;;;5068518;28;20051;-67
2023/11/30 08:58:12;;;;;;;93.38;60.50;;;230.70;2252.80;;;;;;5068214;28;20048;-67
2023/11/30 09:00:42;;;;;;;126.53;74.53;;;230.70;2252.80;;;;;;5068678;28;20074;-59
2023/11/30 09:03:08;;;;;;;647.30;377.85;;;205.70;2252.80;;;;;;5068046;28;20047;-60
2023/11/30 09:05:34;;;;;;;393.65;219.93;;;205.60;2252.80;;;;;;5050274;28;20078;-59
2023/11/30 09:08:00;;;;;;;283.48;167.10;;;205.20;2252.80;;;;;;5067515;28;20390;-67
2023/11/30 09:10:26;;;;;;;149.30;93.22;;;205.00;2252.80;;;;;;5068299;28;20051;-68
2023/11/30 09:12:52;;;;;;;109.35;69.05;;;204.80;2252.80;;;;;;5068076;28;20487;-59
2023/11/30 09:15:19;;;;;;;89.35;58.60;;;204.80;2252.80;;;;;;5068124;28;20119;-60
2023/11/30 09:17:46;;;;;;;98.63;59.30;;;180.10;2252.80;;;;;;5068995;28;20044;-66
2023/11/30 09:20:12;;;;;;;87.88;54.42;;;180.10;2252.80;;;;;;5066561;28;20403;-64
2023/11/30 09:22:38;;;;;;;85.22;52.33;;;205.20;2252.80;;;;;;5067175;28;20367;-62
2023/11/30 09:25:05;;;;;;;91.07;53.33;;;205.20;2252.80;;;;;;5069120;28;20033;-63
2023/11/30 09:27:31;;;;;;;207.38;114.93;;;205.40;2252.80;;;;;;5068420;28;20032;-61
2023/11/30 09:29:56;;;;;;;182.63;104.65;;;205.50;2252.80;;;;;;5068512;28;20029;-60
2023/11/30 09:32:22;;;;;;;170.82;105.72;;;205.50;2252.80;;;;;;5068011;28;20071;-61
2023/11/30 09:34:48;;;;;;;162.82;103.40;;;205.50;2252.80;;;;;;5068531;28;20059;-67
2023/11/30 09:37:14;;;;;;;149.00;91.40;;;205.40;2252.80;;;;;;5068145;28;20029;-65
2023/11/30 09:39:40;;;;;;;134.60;86.93;;;205.50;2252.80;;;;;;5067643;28;20033;-69
2023/11/30 09:42:07;;;;;;;85.00;57.63;;;205.40;2252.80;;;;;;5068710;28;20111;-64
2023/11/30 09:44:33;;;;;;;90.70;61.85;;;205.30;2252.80;;;;;;5067883;28;20021;-69
2023/11/30 09:46:59;;;;;;;62.17;46.60;;;205.40;2252.80;;;;;;5068170;28;20524;-60
2023/11/30 09:49:25;;;;;;;78.70;53.55;;;230.40;2252.80;;;;;;5068444;28;20394;-61
2023/11/30 09:51:51;;;;;;;72.85;52.45;;;230.40;2252.80;;;;;;5064935;28;20024;-64
2023/11/30 09:54:19;;;;;;;67.05;48.55;;;230.60;2252.80;;;;;;5068184;28;20013;-61
2023/11/30 09:56:45;;;;;;;76.05;50.33;;;230.70;2252.80;;;;;;5067421;28;20054;-67
2023/11/30 09:59:11;;;;;;;74.43;50.03;;;230.80;2252.80;;;;;;5067673;28;20036;-70
2023/11/30 10:01:39;;;;;;;116.15;71.50;;;230.90;2252.80;;;;;;5071046;28;20182;-62
2023/11/30 10:04:13;;;;;;;50.53;32.70;;;256.10;2252.80;;;;;;5072032;28;20035;-59
2023/11/30 10:06:38;;;;;;;45.95;30.05;;;256.80;2252.80;;;;;;5071557;28;20025;-62
2023/11/30 10:09:04;;;;;;;81.28;56.47;;;281.90;2278.40;;;;;;5071605;28;20025;-60
2023/11/30 10:11:30;;;;;;;86.95;60.47;;;282.00;2278.40;;;;;;5053808;28;20083;-60
2023/11/30 10:13:56;;;;;;;49.70;34.85;;;256.90;2252.80;;;;;;5072401;28;20056;-64
2023/11/30 10:16:22;;;;;;;65.15;47.90;;;281.90;2278.40;;;;;;5070972;28;20021;-69
2023/11/30 10:18:47;;;;;;;95.50;66.97;;;282.10;2278.40;;;;;;5072044;28;20078;-70
2023/11/30 10:21:13;;;;;;;63.15;45.00;;;282.50;2278.40;;;;;;5072157;28;20025;-68
2023/11/30 10:23:39;;;;;;;30.25;21.08;;;307.70;2304.00;;;;;;5071050;28;20036;-69
2023/11/30 10:26:05;;;;;;;36.50;25.77;;;308.00;2304.00;;;;;;5067917;28;20039;-61
2023/11/30 10:28:31;;;;;;;21.98;15.27;;;332.90;2329.60;;;;;;5071238;28;20051;-60
2023/11/30 10:30:59;;;;;;;21.65;11.98;;;333.00;2329.60;;;;;;5072066;28;20024;-60
2023/11/30 10:33:26;;;;;;;74.35;48.38;;;333.00;2329.60;;;;;;5071987;28;20372;-61
2023/11/30 10:35:53;;;;;;;86.07;62.80;;;333.00;2329.60;;;;;;5072009;28;20378;-61
2023/11/30 10:38:41;;;;;;;75.97;55.55;;;307.80;2304.00;;;;;;5071283;28;20127;-62
2023/11/30 10:41:13;;;;;;;61.72;41.03;;;307.50;2304.00;;;;;;5071563;28;20024;-61
2023/11/30 10:43:44;;;;;;;50.63;35.10;;;307.80;2304.00;;;;;;5071612;28;20484;-61
2023/11/30 10:46:13;;;;;;;63.45;38.50;;;332.90;2329.60;;;;;;5071740;28;20414;-61
2023/11/30 10:48:39;;;;;;;63.00;42.17;;;332.80;2329.60;;;;;;5071737;28;20024;-61
2023/11/30 10:51:07;;;;;;;111.95;69.95;;;308.10;2304.00;;;;;;5071610;28;20375;-61
2023/11/30 10:53:41;;;;;;;65.43;48.30;;;333.00;2329.60;;;;;;5071682;28;20422;-61
2023/11/30 10:56:10;;;;;;;437.50;332.05;;;333.20;2329.60;;;;;;5071747;28;20052;-61
2023/11/30 10:58:36;;;;;;;83.85;57.15;;;333.40;2329.60;;;;;;5071520;28;20040;-73
2023/11/30 11:01:02;;;;;;;99.85;62.58;;;333.10;2329.60;;;;;;5071378;28;20021;-69
2023/11/30 11:03:28;;;;;;;103.63;71.53;;;332.90;2329.60;;;;;;5068779;28;20102;-62
2023/11/30 11:05:55;;;;;;;101.40;70.18;;;332.90;2329.60;;;;;;5051643;28;20452;-61
2023/11/30 11:08:22;;;;;;;110.63;75.28;;;333.40;2329.60;;;;;;5071142;28;20078;-74
2023/11/30 11:10:50;;;;;;;131.85;91.05;;;333.70;2329.60;;;;;;5070982;28;20035;-61
2023/11/30 11:13:24;;;;;;;119.15;85.15;;;358.40;2329.60;;;;;;5070533;28;20032;-60
2023/11/30 11:16:00;;;;;;;93.57;61.30;;;358.40;2329.60;;;;;;5071130;28;20386;-60
2023/11/30 11:18:31;;;;;;;64.85;40.63;;;333.30;2329.60;;;;;;5071042;28;20029;-61
2023/11/30 11:20:57;;;;;;;46.25;33.55;;;333.50;2329.60;;;;;;5070861;28;20046;-60
2023/11/30 11:23:23;;;;;;;51.00;37.38;;;333.40;2329.60;;;;;;5071006;28;20070;-75
2023/11/30 11:25:50;;;;;;;63.20;42.80;;;358.40;2329.60;;;;;;5070682;28;20759;-61
2023/11/30 11:28:17;;;;;;;123.20;76.07;;;333.70;2329.60;;;;;;5071385;28;20598;-60
2023/11/30 11:30:44;;;;;;;54.70;34.70;;;358.40;2329.60;;;;;;5070756;28;20016;-60
2023/11/30 11:33:10;;;;;;;58.95;39.03;;;333.70;2329.60;;;;;;5064193;28;20029;-60
2023/11/30 11:35:36;;;;;;;50.45;34.83;;;333.70;2329.60;;;;;;5062100;28;20017;-61
2023/11/30 11:38:02;;;;;;;81.15;54.05;;;358.40;2329.60;;;;;;5070303;28;20029;-64
2023/11/30 11:40:28;;;;;;;167.40;107.13;;;333.70;2329.60;;;;;;5070459;28;20029;-71
2023/11/30 11:42:54;;;;;;;120.97;85.80;;;358.40;2329.60;;;;;;5070905;28;20024;-61
2023/11/30 11:45:21;;;;;;;106.40;75.20;;;358.60;2329.60;;;;;;5069784;28;20117;-61
2023/11/30 11:47:46;;;;;;;88.30;55.00;;;358.40;2329.60;;;;;;5070333;28;20033;-61
2023/11/30 11:50:12;;;;;;;78.18;52.40;;;333.70;2329.60;;;;;;5070357;28;20021;-61
2023/11/30 11:52:39;;;;;;;115.18;78.03;;;333.70;2329.60;;;;;;5070237;28;20035;-61
2023/11/30 11:55:10;;;;;;;70.03;49.63;;;333.70;2329.60;;;;;;5069945;28;20029;-61
2023/11/30 11:57:40;;;;;;;70.80;48.92;;;333.70;2329.60;;;;;;5070626;28;20036;-61
2023/11/30 12:00:16;;;;;;;129.95;91.28;;;358.50;2329.60;;;;;;5070135;28;20035;-61